Terminal Aerodrome Forecast
Issued by NWS Charleston, WV

Current Version | Previous Version | Text Only | Print | Product List | Glossary Off
Versions: 1 2 3 4 5 6 7 8 9 10 11 12 13 14 15 16 17 18 19 20 21 22 23 24 25 26 27 28 29

294
FTUS41 KRLX 262320
TAFHTS
TAF
KHTS 262320Z 2700/2724 17008KT P6SM SCT035 OVC050
      TEMPO 2700/2702 -SHRA BKN035
     FM270200 19005KT P6SM -SHRA OVC040
     FM270400 20004KT P6SM BKN040
     FM270800 17003KT P6SM BKN025
     FM271400 19008KT P6SM BKN040=

USA.gov is the U.S. government's official web portal to all federal, state and local government web resources and services.